Time;durP1;ratioP1;P1;durP2;ratioP2;P2;SDS_P1;SDS_P2;PMS_P1;PMS_P2;Temp;Humidity;BMP_temperature;BMP_pressure;BME280_temperature;BME280_humidity;BME280_pressure;Samples;Min_cycle;Max_cycle;Signal;HPM_P1;HPM_P2
2023/06/12 00:01:40;;;;;;;7.05;4.93;;;18.10;53.90;;;;;;5005380;28;114316;-76
2023/06/12 00:04:07;;;;;;;6.35;4.95;;;17.90;54.30;;;;;;5004101;28;114954;-78
2023/06/12 00:06:35;;;;;;;5.50;4.53;;;17.90;54.70;;;;;;5003178;28;114782;-78
2023/06/12 00:09:04;;;;;;;5.40;4.57;;;17.90;54.90;;;;;;5005150;28;114421;-78
2023/06/12 00:11:31;;;;;;;6.15;5.15;;;18.00;54.80;;;;;;5004811;28;114661;-78
2023/06/12 00:13:59;;;;;;;7.63;5.70;;;18.00;54.70;;;;;;5002970;28;115239;-78
2023/06/12 00:16:27;;;;;;;6.20;4.70;;;18.10;54.40;;;;;;5003590;28;114578;-78
2023/06/12 00:18:54;;;;;;;8.35;5.07;;;18.20;54.50;;;;;;5004859;28;114472;-78
2023/06/12 00:21:23;;;;;;;6.00;5.00;;;18.10;54.20;;;;;;5004718;28;114487;-79
2023/06/12 00:23:50;;;;;;;5.50;4.43;;;18.10;54.40;;;;;;5003515;28;116285;-79
2023/06/12 00:26:17;;;;;;;6.72;5.10;;;18.00;54.80;;;;;;5002334;28;114731;-79
2023/06/12 00:28:45;;;;;;;6.70;4.93;;;18.20;54.50;;;;;;4983080;28;114361;-78
2023/06/12 00:31:12;;;;;;;6.97;4.70;;;18.20;54.60;;;;;;4987424;28;114308;-78
2023/06/12 00:33:40;;;;;;;9.70;5.20;;;18.30;54.50;;;;;;5004521;28;114941;-77
2023/06/12 00:36:08;;;;;;;6.03;4.90;;;18.30;54.30;;;;;;4992316;28;115040;-77
2023/06/12 00:38:36;;;;;;;5.97;4.50;;;18.40;54.20;;;;;;4987557;28;114441;-77
2023/06/12 00:41:03;;;;;;;7.05;5.35;;;18.50;53.90;;;;;;5004445;28;114465;-77
2023/06/12 00:43:30;;;;;;;6.30;4.57;;;18.50;53.80;;;;;;5002617;28;114969;-77
2023/06/12 00:45:57;;;;;;;6.82;5.15;;;18.50;53.90;;;;;;5006940;28;115197;-78
2023/06/12 00:48:24;;;;;;;7.20;4.75;;;18.50;53.50;;;;;;5008023;28;114377;-79
2023/06/12 00:50:56;;;;;;;5.82;4.70;;;18.40;53.50;;;;;;4988925;28;116110;-77
2023/06/12 00:53:23;;;;;;;7.78;5.30;;;18.30;53.60;;;;;;4989206;28;116808;-78
2023/06/12 00:55:50;;;;;;;6.10;4.88;;;18.20;53.90;;;;;;5003687;28;114701;-78
2023/06/12 00:58:17;;;;;;;6.45;4.68;;;18.20;54.30;;;;;;4973537;28;114268;-78
2023/06/12 01:00:48;;;;;;;6.28;5.03;;;18.20;54.00;;;;;;5008000;28;114048;-78
2023/06/12 01:03:15;;;;;;;6.55;4.60;;;18.30;53.70;;;;;;4988473;28;118511;-78
2023/06/12 01:05:43;;;;;;;5.75;4.82;;;18.40;53.60;;;;;;5005123;28;114941;-77
2023/06/12 01:08:16;;;;;;;8.63;5.57;;;18.40;53.60;;;;;;5006625;28;114734;-77
2023/06/12 01:10:53;;;;;;;5.40;4.47;;;18.40;53.90;;;;;;5004283;28;114504;-77
2023/06/12 01:13:20;;;;;;;6.57;4.68;;;18.50;53.70;;;;;;5005142;28;115082;-77
2023/06/12 01:15:48;;;;;;;5.90;4.55;;;18.50;53.50;;;;;;4989465;28;114757;-77
2023/06/12 01:18:17;;;;;;;5.47;4.85;;;18.50;53.50;;;;;;5006522;28;114528;-76
2023/06/12 01:20:44;;;;;;;7.65;4.65;;;18.40;53.60;;;;;;4990496;28;114595;-77
2023/06/12 01:23:20;;;;;;;6.22;4.97;;;18.50;53.80;;;;;;5005085;28;115125;-77
2023/06/12 01:26:01;;;;;;;6.93;4.25;;;18.60;53.10;;;;;;5004938;28;115130;-77
2023/06/12 01:28:37;;;;;;;6.18;4.72;;;18.60;53.30;;;;;;5006677;28;114477;-77
2023/06/12 01:31:14;;;;;;;6.03;4.70;;;18.50;53.20;;;;;;5008499;28;115365;-77
2023/06/12 01:33:47;;;;;;;5.47;4.68;;;18.60;53.20;;;;;;5024762;28;114908;-77
2023/06/12 01:36:15;;;;;;;5.88;5.00;;;18.70;53.40;;;;;;5026303;27;115774;-77
2023/06/12 01:38:45;;;;;;;8.77;5.22;;;18.70;53.00;;;;;;5009726;28;114401;-77
2023/06/12 01:41:16;;;;;;;6.43;5.00;;;18.70;51.90;;;;;;4977534;28;114477;-77
2023/06/12 01:43:43;;;;;;;5.75;5.05;;;18.70;52.90;;;;;;5025098;28;119553;-77
2023/06/12 01:46:10;;;;;;;6.32;5.03;;;18.60;53.00;;;;;;5011657;28;114335;-77
2023/06/12 01:48:40;;;;;;;5.93;4.90;;;18.70;52.70;;;;;;4989220;28;114392;-77
2023/06/12 01:51:07;;;;;;;6.80;5.30;;;18.70;53.10;;;;;;5005865;28;114251;-77
2023/06/12 01:53:35;;;;;;;5.97;4.82;;;18.70;52.50;;;;;;5004195;28;115371;-78
2023/06/12 01:56:03;;;;;;;6.28;4.97;;;18.70;52.90;;;;;;5005054;28;114907;-79
2023/06/12 01:58:31;;;;;;;8.27;5.57;;;18.70;52.60;;;;;;5005110;28;114420;-79
2023/06/12 02:05:29;;;;;;;5.78;4.97;;;18.70;52.50;;;;;;5002394;28;114496;-78
2023/06/12 02:08:01;;;;;;;6.88;5.18;;;18.50;53.40;;;;;;5004383;28;117924;-78
2023/06/12 02:10:29;;;;;;;5.88;4.80;;;18.50;53.00;;;;;;4988696;28;114511;-79
2023/06/12 02:12:56;;;;;;;7.93;4.95;;;18.50;53.10;;;;;;5005840;28;114542;-78
2023/06/12 02:15:24;;;;;;;7.15;5.00;;;18.50;53.00;;;;;;5004276;28;114900;-78
2023/06/12 02:17:52;;;;;;;7.60;5.65;;;18.50;53.20;;;;;;4988047;28;114745;-77
2023/06/12 02:20:20;;;;;;;9.73;5.47;;;18.40;52.90;;;;;;5012978;28;115224;-77
2023/06/12 02:22:47;;;;;;;6.80;5.40;;;18.30;52.90;;;;;;5025237;28;114294;-77
2023/06/12 02:25:14;;;;;;;7.65;4.95;;;18.30;53.30;;;;;;5024690;28;115361;-78
2023/06/12 02:27:41;;;;;;;6.47;4.57;;;18.20;53.20;;;;;;5007920;28;114746;-78
2023/06/12 02:30:09;;;;;;;5.97;4.93;;;18.20;53.60;;;;;;5025227;28;114567;-78
2023/06/12 02:32:38;;;;;;;8.10;5.47;;;18.20;53.90;;;;;;5027234;27;114172;-78
2023/06/12 02:35:08;;;;;;;6.28;5.03;;;18.20;53.30;;;;;;5008699;28;115408;-77
2023/06/12 02:37:36;;;;;;;6.80;4.93;;;18.20;53.60;;;;;;5024710;28;114684;-76
2023/06/12 02:40:05;;;;;;;7.57;5.30;;;18.20;53.90;;;;;;5008993;28;114351;-77
2023/06/12 02:42:33;;;;;;;8.30;5.25;;;18.30;53.60;;;;;;5025615;28;114465;-77
2023/06/12 02:45:00;;;;;;;7.65;5.50;;;18.30;53.80;;;;;;4988083;28;116928;-78
2023/06/12 02:47:30;;;;;;;7.25;5.55;;;18.20;53.20;;;;;;5004071;28;115794;-78
2023/06/12 02:49:58;;;;;;;7.13;5.32;;;18.20;53.60;;;;;;5005476;28;114327;-78
2023/06/12 02:52:34;;;;;;;7.03;4.50;;;18.20;53.30;;;;;;5004403;28;114231;-79
2023/06/12 02:55:07;;;;;;;8.27;5.30;;;18.10;54.00;;;;;;4987631;28;115515;-78
2023/06/12 02:57:35;;;;;;;6.90;5.57;;;18.00;53.70;;;;;;5005342;28;114643;-76
2023/06/12 03:00:03;;;;;;;7.15;5.22;;;18.00;53.50;;;;;;4988729;28;114479;-77
2023/06/12 03:02:42;;;;;;;7.43;5.07;;;18.00;54.00;;;;;;4992914;28;114585;-78
2023/06/12 03:05:12;;;;;;;6.35;4.78;;;17.90;54.10;;;;;;5024043;28;116863;-78
2023/06/12 03:07:41;;;;;;;7.13;5.20;;;17.80;54.30;;;;;;5007757;28;114687;-77
2023/06/12 03:10:09;;;;;;;9.93;6.70;;;17.70;54.50;;;;;;5023910;28;114680;-77
2023/06/12 03:12:37;;;;;;;7.47;5.40;;;17.60;54.40;;;;;;5024851;28;114467;-78
2023/06/12 03:15:05;;;;;;;7.40;5.40;;;17.80;54.80;;;;;;5022932;28;118662;-79
2023/06/12 03:17:32;;;;;;;6.43;4.80;;;18.00;54.00;;;;;;5004208;28;114839;-79
2023/06/12 03:20:00;;;;;;;6.57;5.30;;;18.30;54.00;;;;;;5004670;28;114250;-79
2023/06/12 03:22:27;;;;;;;6.80;4.70;;;18.70;53.30;;;;;;4988271;28;114669;-78
2023/06/12 03:24:54;;;;;;;8.40;4.70;;;19.20;52.70;;;;;;4987147;28;114996;-76
2023/06/12 03:27:22;;;;;;;7.70;5.05;;;19.60;51.70;;;;;;4987639;28;114792;-77
2023/06/12 03:29:50;;;;;;;8.18;5.47;;;19.90;50.80;;;;;;5004820;28;114617;-77
2023/06/12 03:32:17;;;;;;;6.30;4.68;;;20.20;49.80;;;;;;5004386;28;115423;-78
2023/06/12 03:34:52;;;;;;;9.23;5.50;;;20.30;49.70;;;;;;4985113;28;114920;-77
2023/06/12 03:37:19;;;;;;;7.72;5.25;;;20.60;48.90;;;;;;5003243;28;114673;-78
2023/06/12 03:39:46;;;;;;;8.00;4.82;;;20.90;48.50;;;;;;5004224;28;114432;-78
2023/06/12 03:42:15;;;;;;;7.95;4.57;;;21.20;47.60;;;;;;5003950;28;114346;-78
2023/06/12 03:45:00;;;;;;;6.50;4.65;;;21.30;47.40;;;;;;5003139;28;114873;-78
2023/06/12 03:47:29;;;;;;;6.43;4.90;;;21.40;47.00;;;;;;5003422;28;114845;-78
2023/06/12 03:49:57;;;;;;;6.35;4.63;;;21.50;46.50;;;;;;5005692;28;114498;-77
2023/06/12 03:52:27;;;;;;;7.25;5.25;;;21.50;46.70;;;;;;4988227;28;114506;-78
2023/06/12 03:54:59;;;;;;;7.47;5.40;;;21.60;46.30;;;;;;4985723;28;118822;-78
2023/06/12 03:57:27;;;;;;;6.50;5.40;;;21.60;46.30;;;;;;4970408;28;114672;-78
2023/06/12 03:59:54;;;;;;;7.00;5.10;;;21.50;46.40;;;;;;5003600;28;114365;-79
2023/06/12 04:02:23;;;;;;;7.07;5.70;;;21.50;46.50;;;;;;5003658;28;114526;-78
2023/06/12 04:04:51;;;;;;;6.70;5.35;;;21.60;46.10;;;;;;5002902;28;115368;-78
2023/06/12 04:07:21;;;;;;;7.03;5.30;;;21.60;45.80;;;;;;4995824;28;117090;-79
2023/06/12 04:09:48;;;;;;;7.68;5.22;;;21.40;45.50;;;;;;5024131;28;114395;-79
2023/06/12 04:12:15;;;;;;;8.50;5.60;;;21.10;46.10;;;;;;5007212;28;114332;-79
2023/06/12 04:14:42;;;;;;;6.05;5.32;;;20.90;46.90;;;;;;5022933;28;115973;-80
2023/06/12 04:17:09;;;;;;;8.50;5.50;;;20.80;46.80;;;;;;5022444;28;115488;-79
2023/06/12 04:19:37;;;;;;;5.90;5.30;;;20.80;47.20;;;;;;5023505;28;114339;-79
2023/06/12 04:22:05;;;;;;;6.78;5.35;;;20.90;47.30;;;;;;5004516;28;115080;-78
2023/06/12 04:24:33;;;;;;;7.78;5.20;;;21.10;46.80;;;;;;4986223;28;114877;-78
2023/06/12 04:27:01;;;;;;;7.15;4.97;;;21.00;46.00;;;;;;5004057;28;115126;-78
2023/06/12 04:29:32;;;;;;;6.93;4.70;;;20.80;46.60;;;;;;4987620;28;114231;-77
2023/06/12 04:31:59;;;;;;;6.82;5.68;;;20.70;46.80;;;;;;5005083;28;114791;-77
2023/06/12 04:34:29;;;;;;;7.25;5.53;;;20.80;46.60;;;;;;5002670;28;117314;-77
2023/06/12 04:36:56;;;;;;;7.47;5.25;;;20.80;46.70;;;;;;5002980;28;114860;-77
2023/06/12 04:39:23;;;;;;;8.48;4.97;;;20.80;46.70;;;;;;5004654;28;114556;-76
2023/06/12 04:41:51;;;;;;;6.78;4.80;;;20.80;46.60;;;;;;5003931;28;114642;-78
2023/06/12 04:44:21;;;;;;;6.45;4.85;;;20.70;46.50;;;;;;5002200;28;115611;-78
2023/06/12 04:46:48;;;;;;;9.13;5.15;;;20.70;46.30;;;;;;4986423;28;114648;-78
2023/06/12 04:49:16;;;;;;;7.60;4.78;;;20.70;46.30;;;;;;4986456;28;114558;-78
2023/06/12 04:51:48;;;;;;;6.05;4.60;;;20.70;46.80;;;;;;5003641;28;116943;-78
2023/06/12 04:54:18;;;;;;;9.45;4.85;;;20.80;46.00;;;;;;5002162;28;114921;-78
2023/06/12 04:56:47;;;;;;;8.32;4.97;;;20.80;46.10;;;;;;4986521;28;114673;-78
2023/06/12 04:59:16;;;;;;;6.75;4.60;;;20.80;46.50;;;;;;5003394;28;114570;-78
2023/06/12 05:01:44;;;;;;;7.30;5.22;;;20.80;46.20;;;;;;5002778;28;114370;-78
2023/06/12 05:04:11;;;;;;;7.20;4.70;;;20.80;46.50;;;;;;5002205;28;114918;-78
2023/06/12 05:06:41;;;;;;;9.00;5.15;;;20.90;45.80;;;;;;5002793;28;114714;-78
2023/06/12 05:09:08;;;;;;;9.07;4.55;;;20.80;45.30;;;;;;5001920;28;114570;-78
2023/06/12 05:11:36;;;;;;;6.65;4.80;;;20.70;45.60;;;;;;4986138;28;114553;-78
2023/06/12 05:14:05;;;;;;;6.85;4.85;;;20.70;45.60;;;;;;5001101;28;116347;-77
2023/06/12 05:16:33;;;;;;;8.52;4.80;;;20.70;45.40;;;;;;4984934;28;114774;-78
2023/06/12 05:19:00;;;;;;;6.10;4.60;;;20.60;45.30;;;;;;5002827;28;114490;-78
2023/06/12 05:21:33;;;;;;;6.93;4.72;;;20.50;46.00;;;;;;5003072;28;114294;-78
2023/06/12 05:24:00;;;;;;;6.20;4.97;;;20.30;46.40;;;;;;4969107;28;115067;-78
2023/06/12 05:26:29;;;;;;;6.45;4.30;;;20.30;46.60;;;;;;4985288;28;114974;-77
2023/06/12 05:28:56;;;;;;;8.75;4.75;;;20.30;46.10;;;;;;5002686;28;114502;-77
2023/06/12 05:31:24;;;;;;;7.85;4.63;;;20.30;46.10;;;;;;5003260;28;114393;-77
2023/06/12 05:33:52;;;;;;;9.82;4.63;;;20.10;46.40;;;;;;5004597;28;115023;-79
2023/06/12 05:36:19;;;;;;;5.88;4.53;;;20.10;45.90;;;;;;4988448;28;114733;-77
2023/06/12 05:38:54;;;;;;;6.93;4.78;;;20.10;45.50;;;;;;4988491;28;115481;-77
2023/06/12 05:41:22;;;;;;;6.40;4.72;;;20.00;46.00;;;;;;4988721;28;114530;-78
2023/06/12 05:43:52;;;;;;;8.02;4.68;;;20.20;46.40;;;;;;4988225;28;117999;-78
2023/06/12 05:46:20;;;;;;;7.93;4.60;;;20.20;45.60;;;;;;5019401;28;115662;-78
2023/06/12 05:48:48;;;;;;;5.53;4.60;;;20.30;46.30;;;;;;4987424;28;114536;-78
2023/06/12 05:51:16;;;;;;;7.28;4.40;;;20.40;45.30;;;;;;5005404;28;114433;-78
2023/06/12 05:53:47;;;;;;;6.30;4.60;;;20.30;46.00;;;;;;5023048;28;114857;-78
2023/06/12 05:56:18;;;;;;;7.82;4.65;;;20.30;46.30;;;;;;5020370;28;114606;-78
2023/06/12 05:58:50;;;;;;;8.18;4.25;;;20.30;45.50;;;;;;4991629;28;114458;-78
2023/06/12 06:01:21;;;;;;;5.78;4.55;;;20.20;46.70;;;;;;5006858;28;114313;-78
2023/06/12 06:03:55;;;;;;;7.18;5.32;;;20.30;46.50;;;;;;4985982;28;117175;-79
2023/06/12 06:06:23;;;;;;;10.32;4.90;;;20.30;46.00;;;;;;5004390;28;114788;-78
2023/06/12 06:08:52;;;;;;;6.88;4.30;;;20.20;46.50;;;;;;5005218;28;114591;-78
2023/06/12 06:11:20;;;;;;;8.45;4.78;;;20.30;46.80;;;;;;5005279;28;114419;-78
2023/06/12 06:13:48;;;;;;;7.95;4.35;;;20.30;46.10;;;;;;4987588;28;118177;-78
2023/06/12 06:16:15;;;;;;;6.60;4.50;;;20.40;45.90;;;;;;5004354;28;114646;-78
2023/06/12 06:18:42;;;;;;;7.38;4.75;;;20.50;45.40;;;;;;5006514;28;115433;-78
2023/06/12 06:21:11;;;;;;;7.45;4.97;;;20.40;44.80;;;;;;4972788;28;114514;-78
2023/06/12 06:23:39;;;;;;;6.60;4.60;;;20.30;44.90;;;;;;5004481;28;114866;-77
2023/06/12 06:26:13;;;;;;;6.75;4.30;;;20.20;45.30;;;;;;4987889;28;115913;-78
2023/06/12 06:28:40;;;;;;;9.43;4.55;;;20.20;45.80;;;;;;5004985;28;114582;-78
2023/06/12 06:31:10;;;;;;;8.90;4.63;;;20.30;45.60;;;;;;5006465;28;114206;-78
2023/06/12 06:33:38;;;;;;;7.07;4.53;;;20.50;45.20;;;;;;5004145;28;115567;-78
2023/06/12 06:36:16;;;;;;;7.72;5.32;;;20.50;44.80;;;;;;4987901;28;115738;-77
2023/06/12 06:38:44;;;;;;;9.32;4.15;;;20.40;44.40;;;;;;5005279;28;114188;-77
2023/06/12 06:41:11;;;;;;;11.63;4.20;;;20.20;45.10;;;;;;4971500;28;114336;-78
2023/06/12 06:43:44;;;;;;;5.68;4.07;;;20.20;45.10;;;;;;4986561;28;116401;-77
2023/06/12 06:46:13;;;;;;;10.60;4.00;;;20.20;44.90;;;;;;4988604;28;114557;-77
2023/06/12 06:48:44;;;;;;;8.32;4.68;;;20.00;44.90;;;;;;5006714;28;114316;-77
2023/06/12 06:51:11;;;;;;;7.85;3.88;;;20.00;45.10;;;;;;5007025;28;114467;-77
2023/06/12 06:53:38;;;;;;;4.95;3.47;;;20.00;45.20;;;;;;5005506;28;114886;-78
2023/06/12 06:56:08;;;;;;;8.90;3.92;;;19.90;44.10;;;;;;5006214;28;114832;-78
2023/06/12 06:58:35;;;;;;;8.30;3.47;;;19.80;43.90;;;;;;5007197;28;114470;-77
2023/06/12 07:01:03;;;;;;;7.32;3.20;;;19.80;42.70;;;;;;5007376;28;115408;-78
2023/06/12 07:03:30;;;;;;;7.30;3.35;;;19.70;43.40;;;;;;4989651;28;114819;-78
2023/06/12 07:06:00;;;;;;;6.32;3.13;;;19.50;41.90;;;;;;5005797;28;115451;-78
2023/06/12 07:08:27;;;;;;;8.13;2.90;;;19.40;42.10;;;;;;5023763;28;115724;-78
2023/06/12 07:10:55;;;;;;;6.97;3.17;;;19.40;42.50;;;;;;5024198;28;114556;-79
2023/06/12 07:13:23;;;;;;;5.03;2.95;;;19.50;42.20;;;;;;5005709;28;115385;-79
2023/06/12 07:15:54;;;;;;;4.50;3.20;;;19.50;42.50;;;;;;5005396;28;115282;-78
2023/06/12 07:18:22;;;;;;;6.13;3.45;;;19.40;42.50;;;;;;5006620;28;114554;-78
2023/06/12 07:20:49;;;;;;;4.28;2.80;;;19.60;42.40;;;;;;5025475;28;114494;-78
2023/06/12 07:23:19;;;;;;;4.63;3.03;;;19.60;41.90;;;;;;5023469;28;114975;-79
2023/06/12 07:25:46;;;;;;;5.93;3.05;;;19.50;41.00;;;;;;5023785;28;114941;-78
2023/06/12 07:28:14;;;;;;;5.85;3.30;;;19.50;40.70;;;;;;5007780;28;114315;-78
2023/06/12 07:30:41;;;;;;;4.53;2.63;;;19.40;41.40;;;;;;5024377;28;114506;-78
2023/06/12 07:33:09;;;;;;;5.28;3.30;;;19.30;41.80;;;;;;5023728;28;114951;-78
2023/06/12 07:35:37;;;;;;;4.00;2.67;;;19.50;41.10;;;;;;5007396;28;114933;-79
2023/06/12 07:38:05;;;;;;;7.10;2.97;;;19.70;40.80;;;;;;5023872;28;114511;-78
2023/06/12 07:40:33;;;;;;;5.90;2.60;;;19.70;39.30;;;;;;5007783;28;114548;-78
2023/06/12 07:43:02;;;;;;;7.20;2.80;;;19.50;39.80;;;;;;5022347;28;115512;-79
2023/06/12 07:45:29;;;;;;;7.43;2.60;;;19.40;40.70;;;;;;5006473;28;114647;-79
2023/06/12 07:47:57;;;;;;;7.90;2.70;;;19.40;39.20;;;;;;4988465;28;114601;-78
2023/06/12 07:50:32;;;;;;;5.85;2.60;;;19.20;39.20;;;;;;5007222;28;114448;-78
2023/06/12 07:53:01;;;;;;;4.25;2.70;;;19.10;38.70;;;;;;5021484;27;115290;-78
2023/06/12 07:55:30;;;;;;;4.95;2.58;;;18.90;39.90;;;;;;5020298;28;114664;-78
2023/06/12 07:57:58;;;;;;;5.10;2.80;;;18.90;38.70;;;;;;5022412;28;115441;-79
2023/06/12 08:00:27;;;;;;;6.30;2.58;;;18.90;39.40;;;;;;5023406;28;115006;-78
2023/06/12 08:03:00;;;;;;;5.55;2.47;;;18.90;39.00;;;;;;5005468;28;116661;-79
2023/06/12 08:05:38;;;;;;;5.93;2.53;;;19.00;39.00;;;;;;5021833;28;115178;-79
2023/06/12 08:08:12;;;;;;;5.28;2.50;;;19.00;38.90;;;;;;5022327;28;114567;-78
2023/06/12 08:10:41;;;;;;;3.78;2.47;;;18.90;38.40;;;;;;5007789;28;114419;-79
2023/06/12 08:13:10;;;;;;;6.43;2.65;;;18.80;39.40;;;;;;5022821;28;115174;-78
2023/06/12 08:15:39;;;;;;;5.50;3.08;;;18.80;39.00;;;;;;4989094;28;116870;-79
2023/06/12 08:18:12;;;;;;;4.70;2.30;;;18.70;39.10;;;;;;5023583;28;114399;-78
2023/06/12 08:20:40;;;;;;;5.55;2.70;;;18.70;38.60;;;;;;5023585;28;114574;-78
2023/06/12 08:23:07;;;;;;;5.00;2.80;;;18.80;39.00;;;;;;5005038;28;118025;-77
2023/06/12 08:25:34;;;;;;;6.55;2.40;;;18.70;39.40;;;;;;5002607;28;114605;-77
2023/06/12 08:28:02;;;;;;;8.48;2.75;;;18.80;39.00;;;;;;5004974;28;115372;-77
2023/06/12 08:30:31;;;;;;;6.00;2.58;;;18.80;38.20;;;;;;5022240;28;114159;-77
2023/06/12 08:32:59;;;;;;;4.78;2.60;;;18.80;38.20;;;;;;5023405;28;116432;-77
2023/06/12 08:35:26;;;;;;;5.68;2.50;;;18.70;38.70;;;;;;5022935;28;114764;-77
2023/06/12 08:37:56;;;;;;;4.25;2.38;;;18.70;38.50;;;;;;5023841;28;114396;-77
2023/06/12 08:40:26;;;;;;;5.97;2.45;;;18.80;38.10;;;;;;4991453;28;114279;-77
2023/06/12 08:42:53;;;;;;;7.47;3.05;;;18.80;38.00;;;;;;5022536;28;115565;-77
2023/06/12 08:45:23;;;;;;;6.70;2.60;;;18.80;37.10;;;;;;4999450;28;114793;-78
2023/06/12 08:47:50;;;;;;;7.80;2.60;;;18.60;38.20;;;;;;5003579;28;114182;-77
2023/06/12 08:50:18;;;;;;;6.55;2.35;;;18.60;39.00;;;;;;4987146;28;114398;-77
2023/06/12 08:52:46;;;;;;;3.67;2.58;;;18.60;38.50;;;;;;5002423;28;115049;-76
2023/06/12 08:55:14;;;;;;;3.58;2.10;;;18.70;38.50;;;;;;5003506;28;114610;-77
2023/06/12 08:57:43;;;;;;;8.57;2.50;;;18.80;39.00;;;;;;5002377;28;114285;-78
2023/06/12 09:00:13;;;;;;;7.93;2.85;;;18.80;38.20;;;;;;5003900;28;114835;-78
2023/06/12 09:02:43;;;;;;;7.97;2.75;;;18.80;38.20;;;;;;5002525;28;115611;-78
2023/06/12 09:05:16;;;;;;;5.78;2.40;;;19.00;38.40;;;;;;5002476;28;114540;-78
2023/06/12 09:07:46;;;;;;;5.07;2.42;;;19.00;38.10;;;;;;4990438;28;115302;-79
2023/06/12 09:10:14;;;;;;;8.90;2.55;;;19.00;38.00;;;;;;5007068;28;114181;-78
2023/06/12 09:12:43;;;;;;;5.60;2.33;;;18.90;37.50;;;;;;5006805;28;114849;-78
2023/06/12 09:15:20;;;;;;;6.68;2.70;;;18.80;37.50;;;;;;5005834;28;114811;-79
2023/06/12 09:17:52;;;;;;;5.85;2.20;;;19.00;37.40;;;;;;5006687;28;114553;-78
2023/06/12 09:20:32;;;;;;;6.55;2.83;;;19.00;37.30;;;;;;5006404;28;114497;-78
2023/06/12 09:23:10;;;;;;;4.75;2.60;;;18.90;37.30;;;;;;5005098;28;114952;-79
2023/06/12 09:25:39;;;;;;;8.55;2.60;;;18.80;37.20;;;;;;5006465;28;114657;-79
2023/06/12 09:28:10;;;;;;;4.75;2.90;;;18.70;37.70;;;;;;4988935;28;114844;-78
2023/06/12 09:30:41;;;;;;;5.78;2.60;;;18.70;38.00;;;;;;5006040;28;114615;-78
2023/06/12 09:33:09;;;;;;;6.00;2.90;;;18.70;38.20;;;;;;4988258;28;118310;-77
2023/06/12 09:35:52;;;;;;;3.92;2.30;;;18.70;38.90;;;;;;5006433;28;115176;-78
2023/06/12 09:38:36;;;;;;;9.13;2.60;;;18.80;38.60;;;;;;5006029;28;114480;-78
2023/06/12 09:41:05;;;;;;;5.85;2.45;;;19.00;37.80;;;;;;5006355;28;114202;-77
2023/06/12 09:43:33;;;;;;;5.82;2.60;;;19.00;38.20;;;;;;4988769;28;115406;-78
2023/06/12 09:46:01;;;;;;;8.00;2.45;;;19.00;38.30;;;;;;5004761;28;114616;-77
2023/06/12 09:48:36;;;;;;;5.40;2.92;;;19.20;37.20;;;;;;5006723;28;114463;-78
2023/06/12 09:51:21;;;;;;;6.50;2.70;;;19.30;37.40;;;;;;5006728;28;114432;-77
2023/06/12 09:53:49;;;;;;;3.83;2.50;;;19.20;37.00;;;;;;5005512;28;115150;-78
2023/06/12 09:56:37;;;;;;;5.93;3.03;;;19.10;36.50;;;;;;4988234;28;114860;-78
2023/06/12 09:59:07;;;;;;;7.47;2.90;;;19.00;37.00;;;;;;5013482;28;114412;-78
2023/06/12 10:01:39;;;;;;;4.55;2.38;;;19.00;36.30;;;;;;5025842;28;114547;-77
2023/06/12 10:04:10;;;;;;;6.18;2.70;;;18.90;37.10;;;;;;5024661;28;115021;-77
2023/06/12 10:06:43;;;;;;;8.10;2.88;;;19.00;37.70;;;;;;5023794;28;115102;-78
2023/06/12 10:09:23;;;;;;;4.28;2.45;;;19.20;36.90;;;;;;5007623;28;114466;-78
2023/06/12 10:12:27;;;;;;;4.30;2.80;;;19.10;37.60;;;;;;4983145;28;118306;-77
2023/06/12 10:15:06;;;;;;;5.85;2.50;;;19.20;37.60;;;;;;5024040;28;118871;-77
2023/06/12 10:17:33;;;;;;;5.78;2.75;;;19.20;36.70;;;;;;5023797;27;116822;-78
2023/06/12 10:20:03;;;;;;;8.32;2.70;;;19.20;37.00;;;;;;4991501;28;114323;-77
2023/06/12 10:22:30;;;;;;;6.10;2.58;;;19.30;37.10;;;;;;5024406;28;114325;-77
2023/06/12 10:24:57;;;;;;;7.75;3.08;;;19.20;36.80;;;;;;5024335;28;114834;-78
2023/06/12 10:27:25;;;;;;;7.47;2.47;;;19.20;36.60;;;;;;5008563;28;114718;-79
2023/06/12 10:29:59;;;;;;;7.95;2.60;;;19.20;36.70;;;;;;5017541;27;114514;-78
2023/06/12 10:32:34;;;;;;;5.57;3.05;;;19.20;36.60;;;;;;5008104;28;114286;-77
2023/06/12 10:35:01;;;;;;;6.65;2.80;;;19.20;37.00;;;;;;5003860;28;114926;-77
2023/06/12 10:37:30;;;;;;;5.95;2.60;;;19.10;36.80;;;;;;5003065;28;115766;-78
2023/06/12 10:40:10;;;;;;;5.47;2.58;;;19.10;36.80;;;;;;5003623;28;114201;-79
2023/06/12 10:42:45;;;;;;;4.78;2.70;;;19.10;35.70;;;;;;5004242;28;114244;-77
2023/06/12 10:45:22;;;;;;;5.25;2.70;;;19.10;35.20;;;;;;5004527;28;115702;-79
2023/06/12 10:50:33;;;;;;;6.90;2.45;;;19.20;36.80;;;;;;5026059;27;114468;-79
2023/06/12 10:53:04;;;;;;;7.30;2.90;;;19.10;36.20;;;;;;5009508;28;114275;-79
2023/06/12 10:55:33;;;;;;;4.47;2.65;;;19.10;36.40;;;;;;5004946;28;115527;-78
2023/06/12 11:01:00;;;;;;;6.90;2.50;;;19.00;35.70;;;;;;5003486;28;114220;-79
2023/06/12 11:03:58;;;;;;;5.72;2.67;;;18.80;36.00;;;;;;4990840;28;114396;-78
2023/06/12 11:06:28;;;;;;;4.10;2.40;;;18.80;35.70;;;;;;5003186;28;114901;-76
2023/06/12 11:08:56;;;;;;;7.68;2.40;;;18.80;36.00;;;;;;5006203;28;115612;-76
2023/06/12 11:11:23;;;;;;;5.90;2.90;;;18.70;35.90;;;;;;5019010;28;115818;-78
2023/06/12 11:13:50;;;;;;;5.68;2.80;;;18.80;36.40;;;;;;5024082;28;114539;-77
2023/06/12 11:16:21;;;;;;;9.07;2.70;;;18.80;35.90;;;;;;5023891;28;115017;-78
2023/06/12 11:19:06;;;;;;;6.00;2.60;;;18.80;35.40;;;;;;5006785;28;115206;-78
2023/06/12 11:21:37;;;;;;;5.65;2.45;;;18.80;35.30;;;;;;5025070;27;114319;-77
2023/06/12 11:24:06;;;;;;;9.88;2.38;;;18.80;35.50;;;;;;5024892;28;114359;-78
2023/06/12 11:26:34;;;;;;;3.80;2.30;;;18.80;35.00;;;;;;5006469;28;119127;-78
2023/06/12 11:29:18;;;;;;;5.97;2.28;;;18.90;35.30;;;;;;5024161;27;114631;-76
2023/06/12 11:31:50;;;;;;;9.68;2.40;;;19.00;35.30;;;;;;5024288;28;114749;-78
2023/06/12 11:34:18;;;;;;;6.00;2.97;;;19.00;35.10;;;;;;4990858;28;114382;-79
2023/06/12 11:36:46;;;;;;;4.32;2.45;;;19.10;34.40;;;;;;5006646;28;116368;-78
2023/06/12 11:39:17;;;;;;;5.95;2.47;;;19.00;34.10;;;;;;5023601;28;116653;-79
2023/06/12 11:41:48;;;;;;;5.00;2.60;;;19.00;34.10;;;;;;5025425;28;114706;-79
2023/06/12 11:44:16;;;;;;;5.95;2.70;;;18.90;34.20;;;;;;5025070;28;114292;-78
2023/06/12 11:46:44;;;;;;;4.43;2.25;;;18.90;34.70;;;;;;5024162;28;115148;-78
2023/06/12 11:49:12;;;;;;;4.30;2.45;;;18.90;35.00;;;;;;5022469;28;118725;-78
2023/06/12 11:51:40;;;;;;;6.57;2.50;;;18.90;35.10;;;;;;4984350;28;114732;-79
2023/06/12 11:54:08;;;;;;;5.85;2.47;;;18.80;35.70;;;;;;4986803;28;114434;-78
2023/06/12 11:56:41;;;;;;;4.88;2.25;;;18.90;35.90;;;;;;5003610;28;114913;-78
2023/06/12 11:59:13;;;;;;;4.13;2.35;;;19.00;34.90;;;;;;5004118;28;114945;-79
2023/06/12 12:01:41;;;;;;;7.43;2.85;;;19.10;35.10;;;;;;5004222;28;114343;-78
2023/06/12 12:04:10;;;;;;;5.72;2.40;;;19.20;35.00;;;;;;4988332;28;115426;-78
2023/06/12 12:06:52;;;;;;;4.97;2.58;;;19.10;35.30;;;;;;5004173;28;115136;-79
2023/06/12 12:09:24;;;;;;;3.92;2.40;;;19.20;34.80;;;;;;5002584;28;115278;-79
2023/06/12 12:11:51;;;;;;;4.97;2.47;;;19.10;35.20;;;;;;5003961;28;114462;-79
2023/06/12 12:14:25;;;;;;;6.20;2.53;;;19.00;35.10;;;;;;5003839;28;114530;-78
2023/06/12 12:16:53;;;;;;;6.00;2.65;;;19.00;35.20;;;;;;5011487;28;114888;-78
2023/06/12 12:19:29;;;;;;;7.10;2.45;;;18.90;35.00;;;;;;5023623;28;119523;-78
2023/06/12 12:21:57;;;;;;;5.97;2.33;;;19.00;34.50;;;;;;5023373;28;114548;-79
2023/06/12 12:24:25;;;;;;;4.65;2.20;;;18.90;34.60;;;;;;5022997;28;114520;-77
2023/06/12 12:26:53;;;;;;;5.35;2.50;;;18.90;35.50;;;;;;5022170;28;114968;-79
2023/06/12 12:29:21;;;;;;;7.88;2.55;;;19.00;34.60;;;;;;5024477;28;115138;-79
2023/06/12 12:31:48;;;;;;;8.23;2.30;;;18.90;34.00;;;;;;4998674;28;115974;-79
2023/06/12 12:34:16;;;;;;;4.53;2.70;;;18.80;34.20;;;;;;5004790;28;114311;-79
2023/06/12 12:36:44;;;;;;;5.43;2.28;;;18.80;34.20;;;;;;5002627;28;115152;-77
2023/06/12 12:39:11;;;;;;;9.57;2.40;;;18.80;34.60;;;;;;5001384;28;114657;-78
2023/06/12 12:41:39;;;;;;;7.72;3.05;;;18.80;34.80;;;;;;5005716;28;114374;-78
2023/06/12 12:44:06;;;;;;;5.40;2.53;;;18.90;34.30;;;;;;5012095;28;115528;-77
2023/06/12 12:46:34;;;;;;;8.55;2.58;;;18.90;33.50;;;;;;5026942;28;114981;-78
2023/06/12 12:49:02;;;;;;;6.03;2.70;;;18.90;34.00;;;;;;5021378;28;114715;-77
2023/06/12 12:51:30;;;;;;;3.45;2.20;;;18.90;34.40;;;;;;5010237;28;114386;-77
2023/06/12 12:53:57;;;;;;;4.65;2.60;;;19.00;35.10;;;;;;5027089;28;114358;-78
2023/06/12 12:56:24;;;;;;;6.00;2.47;;;19.00;33.90;;;;;;5001885;28;115536;-78
2023/06/12 12:58:52;;;;;;;6.00;2.17;;;19.00;33.70;;;;;;5004336;28;116252;-78